Ayden, North Carolina
Current Conditions -  °F | °C
As of 3:30 PM on Saturday 25 Oct 2014 (Local Time) from KPGV Reporting Station
Clear Clear  
Wind Chill: 22°   Ceiling: Unl
Heat Index: 22°   Visibility: 10mi
Dew Point:   Wind: 6mph
Humidity: 35%   Direction: 230°SW
Pressure: 29.92"   Gusts: NA
Location:  35.47°N, 77.42°W
Report Text: KPGV 251930Z AUTO 23005KT 10SM CLR 22/06 A2992 RMK AO2
Loading
Personal Weather Stations






























Interactive Weather Map
Tropical Storm Tracking
New forecast layout! Learn more

10-Day Weather Forecast

Advertisements
Track Severe Weather on mobile